sensor_id;sensor_type;location;lat;lon;timestamp;P1;durP1;ratioP1;P2;durP2;ratioP2
66179;SDS011;52986;44.028;20.466;2023-06-22T00:01:02;21.25;;;12.57;;
66179;SDS011;52986;44.028;20.466;2023-06-22T00:03:27;19.98;;;13.13;;
66179;SDS011;52986;44.028;20.466;2023-06-22T00:05:53;20.08;;;12.95;;
66179;SDS011;52986;44.028;20.466;2023-06-22T00:08:18;20.67;;;13.18;;
66179;SDS011;52986;44.028;20.466;2023-06-22T00:10:45;20.42;;;12.90;;
66179;SDS011;52986;44.028;20.466;2023-06-22T00:13:11;21.20;;;13.23;;
66179;SDS011;52986;44.028;20.466;2023-06-22T00:15:38;19.80;;;12.60;;
66179;SDS011;52986;44.028;20.466;2023-06-22T00:18:08;19.05;;;12.93;;
66179;SDS011;52986;44.028;20.466;2023-06-22T00:20:34;20.25;;;13.00;;
66179;SDS011;52986;44.028;20.466;2023-06-22T00:23:03;18.83;;;12.60;;
66179;SDS011;52986;44.028;20.466;2023-06-22T00:25:39;19.90;;;13.15;;
66179;SDS011;52986;44.028;20.466;2023-06-22T00:28:07;20.08;;;11.95;;
66179;SDS011;52986;44.028;20.466;2023-06-22T00:30:33;19.35;;;12.25;;
66179;SDS011;52986;44.028;20.466;2023-06-22T00:32:59;20.75;;;12.75;;
66179;SDS011;52986;44.028;20.466;2023-06-22T00:35:26;21.52;;;12.23;;
66179;SDS011;52986;44.028;20.466;2023-06-22T00:37:54;20.40;;;12.55;;
66179;SDS011;52986;44.028;20.466;2023-06-22T00:40:25;20.80;;;12.65;;
66179;SDS011;52986;44.028;20.466;2023-06-22T00:42:54;19.70;;;12.38;;
66179;SDS011;52986;44.028;20.466;2023-06-22T00:45:21;18.23;;;12.13;;
66179;SDS011;52986;44.028;20.466;2023-06-22T00:47:48;20.27;;;12.23;;
66179;SDS011;52986;44.028;20.466;2023-06-22T00:50:18;19.85;;;12.52;;
66179;SDS011;52986;44.028;20.466;2023-06-22T00:52:47;19.38;;;12.20;;
66179;SDS011;52986;44.028;20.466;2023-06-22T00:55:16;19.98;;;11.90;;
66179;SDS011;52986;44.028;20.466;2023-06-22T00:57:43;18.85;;;11.90;;
66179;SDS011;52986;44.028;20.466;2023-06-22T01:00:11;18.80;;;12.48;;
66179;SDS011;52986;44.028;20.466;2023-06-22T01:02:44;21.75;;;12.50;;
66179;SDS011;52986;44.028;20.466;2023-06-22T01:05:17;19.33;;;12.57;;
66179;SDS011;52986;44.028;20.466;2023-06-22T01:10:41;19.70;;;12.93;;
66179;SDS011;52986;44.028;20.466;2023-06-22T01:13:16;18.55;;;12.50;;
66179;SDS011;52986;44.028;20.466;2023-06-22T01:16:26;18.70;;;11.80;;
66179;SDS011;52986;44.028;20.466;2023-06-22T01:18:50;19.58;;;12.82;;
66179;SDS011;52986;44.028;20.466;2023-06-22T01:21:20;19.75;;;13.13;;
66179;SDS011;52986;44.028;20.466;2023-06-22T01:23:51;19.52;;;12.25;;
66179;SDS011;52986;44.028;20.466;2023-06-22T01:28:54;19.95;;;12.55;;
66179;SDS011;52986;44.028;20.466;2023-06-22T01:31:25;20.42;;;11.68;;
66179;SDS011;52986;44.028;20.466;2023-06-22T01:33:59;19.02;;;12.02;;
66179;SDS011;52986;44.028;20.466;2023-06-22T01:36:26;18.60;;;12.40;;
66179;SDS011;52986;44.028;20.466;2023-06-22T01:38:53;19.83;;;13.20;;
66179;SDS011;52986;44.028;20.466;2023-06-22T01:41:19;21.63;;;13.35;;
66179;SDS011;52986;44.028;20.466;2023-06-22T01:43:46;20.27;;;12.85;;
66179;SDS011;52986;44.028;20.466;2023-06-22T01:46:12;19.73;;;12.68;;
66179;SDS011;52986;44.028;20.466;2023-06-22T01:48:38;20.85;;;13.18;;
66179;SDS011;52986;44.028;20.466;2023-06-22T01:51:04;21.85;;;12.73;;
66179;SDS011;52986;44.028;20.466;2023-06-22T01:53:30;18.70;;;11.98;;
66179;SDS011;52986;44.028;20.466;2023-06-22T01:55:56;19.65;;;12.13;;
66179;SDS011;52986;44.028;20.466;2023-06-22T01:58:26;19.42;;;12.32;;
66179;SDS011;52986;44.028;20.466;2023-06-22T02:00:56;23.35;;;12.68;;
66179;SDS011;52986;44.028;20.466;2023-06-22T02:03:32;19.10;;;12.57;;
66179;SDS011;52986;44.028;20.466;2023-06-22T02:06:10;19.80;;;12.32;;
66179;SDS011;52986;44.028;20.466;2023-06-22T02:08:51;19.95;;;12.18;;
66179;SDS011;52986;44.028;20.466;2023-06-22T02:11:22;20.70;;;12.43;;
66179;SDS011;52986;44.028;20.466;2023-06-22T02:13:50;20.13;;;13.10;;
66179;SDS011;52986;44.028;20.466;2023-06-22T02:16:16;18.88;;;11.82;;
66179;SDS011;52986;44.028;20.466;2023-06-22T02:18:46;18.85;;;11.85;;
66179;SDS011;52986;44.028;20.466;2023-06-22T02:21:12;19.65;;;12.40;;
66179;SDS011;52986;44.028;20.466;2023-06-22T02:23:38;19.95;;;11.98;;
66179;SDS011;52986;44.028;20.466;2023-06-22T02:26:03;21.63;;;12.30;;
66179;SDS011;52986;44.028;20.466;2023-06-22T02:28:29;19.98;;;12.60;;
66179;SDS011;52986;44.028;20.466;2023-06-22T02:30:54;20.02;;;12.75;;
66179;SDS011;52986;44.028;20.466;2023-06-22T02:33:19;21.33;;;13.75;;
66179;SDS011;52986;44.028;20.466;2023-06-22T02:35:45;19.75;;;12.93;;
66179;SDS011;52986;44.028;20.466;2023-06-22T02:38:13;20.23;;;12.52;;
66179;SDS011;52986;44.028;20.466;2023-06-22T02:40:39;21.77;;;12.68;;
66179;SDS011;52986;44.028;20.466;2023-06-22T02:43:04;20.90;;;12.77;;
66179;SDS011;52986;44.028;20.466;2023-06-22T02:45:30;19.08;;;12.20;;
66179;SDS011;52986;44.028;20.466;2023-06-22T02:47:55;21.52;;;12.13;;
66179;SDS011;52986;44.028;20.466;2023-06-22T02:50:21;21.73;;;12.55;;
66179;SDS011;52986;44.028;20.466;2023-06-22T02:52:46;19.75;;;13.43;;
66179;SDS011;52986;44.028;20.466;2023-06-22T02:55:11;19.15;;;13.20;;
66179;SDS011;52986;44.028;20.466;2023-06-22T02:57:37;21.65;;;12.85;;
66179;SDS011;52986;44.028;20.466;2023-06-22T03:00:03;19.20;;;12.18;;
66179;SDS011;52986;44.028;20.466;2023-06-22T03:02:41;20.38;;;12.73;;
66179;SDS011;52986;44.028;20.466;2023-06-22T03:05:07;20.40;;;13.07;;
66179;SDS011;52986;44.028;20.466;2023-06-22T03:07:41;21.75;;;13.25;;
66179;SDS011;52986;44.028;20.466;2023-06-22T03:10:08;21.35;;;12.20;;
66179;SDS011;52986;44.028;20.466;2023-06-22T03:12:34;20.30;;;12.88;;
66179;SDS011;52986;44.028;20.466;2023-06-22T03:15:00;19.90;;;12.65;;
66179;SDS011;52986;44.028;20.466;2023-06-22T03:17:25;22.33;;;13.02;;
66179;SDS011;52986;44.028;20.466;2023-06-22T03:19:51;20.23;;;12.87;;
66179;SDS011;52986;44.028;20.466;2023-06-22T03:22:16;20.20;;;12.77;;
66179;SDS011;52986;44.028;20.466;2023-06-22T03:24:41;20.73;;;12.63;;
66179;SDS011;52986;44.028;20.466;2023-06-22T03:27:07;21.50;;;13.20;;
66179;SDS011;52986;44.028;20.466;2023-06-22T03:29:32;19.88;;;12.93;;
66179;SDS011;52986;44.028;20.466;2023-06-22T03:31:57;20.92;;;12.85;;
66179;SDS011;52986;44.028;20.466;2023-06-22T03:34:23;19.83;;;12.32;;
66179;SDS011;52986;44.028;20.466;2023-06-22T03:36:48;24.10;;;13.43;;
66179;SDS011;52986;44.028;20.466;2023-06-22T03:39:14;21.52;;;13.48;;
66179;SDS011;52986;44.028;20.466;2023-06-22T03:41:39;22.05;;;12.77;;
66179;SDS011;52986;44.028;20.466;2023-06-22T03:44:04;20.70;;;12.45;;
66179;SDS011;52986;44.028;20.466;2023-06-22T03:46:30;21.40;;;12.77;;
66179;SDS011;52986;44.028;20.466;2023-06-22T03:48:55;23.23;;;12.40;;
66179;SDS011;52986;44.028;20.466;2023-06-22T03:51:20;32.78;;;14.30;;
66179;SDS011;52986;44.028;20.466;2023-06-22T03:53:46;26.10;;;13.30;;
66179;SDS011;52986;44.028;20.466;2023-06-22T03:56:13;23.98;;;13.15;;
66179;SDS011;52986;44.028;20.466;2023-06-22T03:58:45;25.83;;;13.85;;
66179;SDS011;52986;44.028;20.466;2023-06-22T04:01:10;22.67;;;13.35;;
66179;SDS011;52986;44.028;20.466;2023-06-22T04:03:36;21.23;;;12.98;;
66179;SDS011;52986;44.028;20.466;2023-06-22T04:06:02;21.42;;;13.30;;
66179;SDS011;52986;44.028;20.466;2023-06-22T04:08:27;22.83;;;13.40;;
66179;SDS011;52986;44.028;20.466;2023-06-22T04:10:53;22.17;;;14.27;;
66179;SDS011;52986;44.028;20.466;2023-06-22T04:13:18;21.85;;;13.82;;
66179;SDS011;52986;44.028;20.466;2023-06-22T04:15:44;27.10;;;13.18;;
66179;SDS011;52986;44.028;20.466;2023-06-22T04:18:10;26.35;;;14.00;;
66179;SDS011;52986;44.028;20.466;2023-06-22T04:20:35;23.52;;;14.18;;
66179;SDS011;52986;44.028;20.466;2023-06-22T04:23:01;25.83;;;14.15;;
66179;SDS011;52986;44.028;20.466;2023-06-22T04:25:26;25.77;;;14.88;;
66179;SDS011;52986;44.028;20.466;2023-06-22T04:27:52;24.27;;;14.98;;
66179;SDS011;52986;44.028;20.466;2023-06-22T04:30:17;23.67;;;14.80;;
66179;SDS011;52986;44.028;20.466;2023-06-22T04:32:43;23.25;;;14.27;;
66179;SDS011;52986;44.028;20.466;2023-06-22T04:35:09;23.10;;;14.10;;
66179;SDS011;52986;44.028;20.466;2023-06-22T04:37:35;22.80;;;13.50;;
66179;SDS011;52986;44.028;20.466;2023-06-22T04:40:01;23.13;;;15.15;;
66179;SDS011;52986;44.028;20.466;2023-06-22T04:42:26;23.38;;;14.68;;
66179;SDS011;52986;44.028;20.466;2023-06-22T04:44:52;23.75;;;14.13;;
66179;SDS011;52986;44.028;20.466;2023-06-22T04:47:17;44.53;;;14.13;;
66179;SDS011;52986;44.028;20.466;2023-06-22T04:49:43;22.15;;;13.52;;
66179;SDS011;52986;44.028;20.466;2023-06-22T04:52:10;21.88;;;13.75;;
66179;SDS011;52986;44.028;20.466;2023-06-22T04:54:36;26.45;;;14.02;;
66179;SDS011;52986;44.028;20.466;2023-06-22T04:57:03;23.02;;;12.68;;
66179;SDS011;52986;44.028;20.466;2023-06-22T04:59:34;21.27;;;13.88;;
66179;SDS011;52986;44.028;20.466;2023-06-22T05:02:00;21.55;;;13.82;;
66179;SDS011;52986;44.028;20.466;2023-06-22T05:04:28;28.33;;;13.48;;
66179;SDS011;52986;44.028;20.466;2023-06-22T05:06:56;22.02;;;13.52;;
66179;SDS011;52986;44.028;20.466;2023-06-22T05:09:22;22.95;;;13.38;;
66179;SDS011;52986;44.028;20.466;2023-06-22T05:11:48;37.42;;;14.10;;
66179;SDS011;52986;44.028;20.466;2023-06-22T05:14:14;25.00;;;13.63;;
66179;SDS011;52986;44.028;20.466;2023-06-22T05:16:40;27.45;;;14.30;;
66179;SDS011;52986;44.028;20.466;2023-06-22T05:19:07;23.38;;;13.32;;
66179;SDS011;52986;44.028;20.466;2023-06-22T05:21:32;27.38;;;14.25;;
66179;SDS011;52986;44.028;20.466;2023-06-22T05:23:58;24.38;;;13.27;;
66179;SDS011;52986;44.028;20.466;2023-06-22T05:26:32;22.95;;;13.15;;
66179;SDS011;52986;44.028;20.466;2023-06-22T05:28:59;25.38;;;13.65;;
66179;SDS011;52986;44.028;20.466;2023-06-22T05:31:26;21.65;;;13.20;;
66179;SDS011;52986;44.028;20.466;2023-06-22T05:33:52;25.33;;;15.02;;
66179;SDS011;52986;44.028;20.466;2023-06-22T05:36:18;24.25;;;13.77;;
66179;SDS011;52986;44.028;20.466;2023-06-22T05:38:51;20.75;;;12.90;;
66179;SDS011;52986;44.028;20.466;2023-06-22T05:41:17;21.42;;;13.75;;
66179;SDS011;52986;44.028;20.466;2023-06-22T05:43:42;23.95;;;14.00;;
66179;SDS011;52986;44.028;20.466;2023-06-22T05:46:08;31.73;;;13.98;;
66179;SDS011;52986;44.028;20.466;2023-06-22T05:48:33;26.85;;;13.57;;
66179;SDS011;52986;44.028;20.466;2023-06-22T05:50:59;23.85;;;13.50;;
66179;SDS011;52986;44.028;20.466;2023-06-22T05:53:24;25.80;;;13.70;;
66179;SDS011;52986;44.028;20.466;2023-06-22T05:55:50;20.98;;;13.55;;
66179;SDS011;52986;44.028;20.466;2023-06-22T05:58:15;22.80;;;14.15;;
66179;SDS011;52986;44.028;20.466;2023-06-22T06:00:41;23.02;;;14.00;;
66179;SDS011;52986;44.028;20.466;2023-06-22T06:03:07;24.02;;;14.35;;
66179;SDS011;52986;44.028;20.466;2023-06-22T06:05:33;21.08;;;13.48;;
66179;SDS011;52986;44.028;20.466;2023-06-22T06:08:00;23.42;;;13.43;;
66179;SDS011;52986;44.028;20.466;2023-06-22T06:10:26;22.80;;;13.60;;
66179;SDS011;52986;44.028;20.466;2023-06-22T06:12:52;24.17;;;14.05;;
66179;SDS011;52986;44.028;20.466;2023-06-22T06:15:17;22.00;;;14.10;;
66179;SDS011;52986;44.028;20.466;2023-06-22T06:17:52;19.80;;;13.95;;
66179;SDS011;52986;44.028;20.466;2023-06-22T06:20:20;24.23;;;15.07;;
66179;SDS011;52986;44.028;20.466;2023-06-22T06:22:48;31.70;;;15.75;;
66179;SDS011;52986;44.028;20.466;2023-06-22T06:25:13;24.85;;;14.07;;
66179;SDS011;52986;44.028;20.466;2023-06-22T06:27:48;25.13;;;14.38;;
66179;SDS011;52986;44.028;20.466;2023-06-22T06:30:15;23.05;;;14.15;;
66179;SDS011;52986;44.028;20.466;2023-06-22T06:32:43;24.55;;;14.98;;
66179;SDS011;52986;44.028;20.466;2023-06-22T06:35:10;27.42;;;15.13;;
66179;SDS011;52986;44.028;20.466;2023-06-22T06:37:38;22.80;;;15.15;;
66179;SDS011;52986;44.028;20.466;2023-06-22T06:40:05;22.92;;;15.13;;
66179;SDS011;52986;44.028;20.466;2023-06-22T06:45:03;24.35;;;15.20;;
66179;SDS011;52986;44.028;20.466;2023-06-22T06:47:29;23.65;;;14.68;;
66179;SDS011;52986;44.028;20.466;2023-06-22T06:49:55;26.70;;;16.10;;
66179;SDS011;52986;44.028;20.466;2023-06-22T06:52:20;31.42;;;15.05;;
66179;SDS011;52986;44.028;20.466;2023-06-22T06:54:45;22.90;;;14.27;;
66179;SDS011;52986;44.028;20.466;2023-06-22T06:57:11;20.60;;;13.85;;
66179;SDS011;52986;44.028;20.466;2023-06-22T06:59:38;25.85;;;14.57;;
66179;SDS011;52986;44.028;20.466;2023-06-22T07:02:04;22.55;;;14.30;;
66179;SDS011;52986;44.028;20.466;2023-06-22T07:04:30;24.73;;;16.05;;
66179;SDS011;52986;44.028;20.466;2023-06-22T07:06:55;21.30;;;14.60;;
66179;SDS011;52986;44.028;20.466;2023-06-22T07:09:21;20.08;;;14.25;;
66179;SDS011;52986;44.028;20.466;2023-06-22T07:11:46;20.33;;;14.25;;
66179;SDS011;52986;44.028;20.466;2023-06-22T07:14:11;20.58;;;14.45;;
66179;SDS011;52986;44.028;20.466;2023-06-22T07:16:37;20.15;;;14.32;;
66179;SDS011;52986;44.028;20.466;2023-06-22T07:19:02;23.85;;;14.45;;
66179;SDS011;52986;44.028;20.466;2023-06-22T07:21:27;22.80;;;14.32;;
66179;SDS011;52986;44.028;20.466;2023-06-22T07:23:53;23.50;;;14.75;;
66179;SDS011;52986;44.028;20.466;2023-06-22T07:26:19;21.85;;;14.90;;
66179;SDS011;52986;44.028;20.466;2023-06-22T07:28:44;25.73;;;14.82;;
66179;SDS011;52986;44.028;20.466;2023-06-22T07:31:10;22.45;;;14.75;;
66179;SDS011;52986;44.028;20.466;2023-06-22T07:33:35;20.60;;;13.82;;
66179;SDS011;52986;44.028;20.466;2023-06-22T07:36:00;20.07;;;13.77;;
66179;SDS011;52986;44.028;20.466;2023-06-22T07:38:27;21.65;;;14.02;;
66179;SDS011;52986;44.028;20.466;2023-06-22T07:40:53;20.05;;;14.95;;
66179;SDS011;52986;44.028;20.466;2023-06-22T07:43:18;24.23;;;13.70;;
66179;SDS011;52986;44.028;20.466;2023-06-22T07:45:50;20.88;;;14.85;;
66179;SDS011;52986;44.028;20.466;2023-06-22T07:48:22;18.95;;;13.77;;
66179;SDS011;52986;44.028;20.466;2023-06-22T07:50:47;20.88;;;13.63;;
66179;SDS011;52986;44.028;20.466;2023-06-22T07:53:13;21.13;;;13.88;;
66179;SDS011;52986;44.028;20.466;2023-06-22T07:55:39;20.25;;;13.23;;
66179;SDS011;52986;44.028;20.466;2023-06-22T07:58:04;23.15;;;13.18;;
66179;SDS011;52986;44.028;20.466;2023-06-22T08:00:29;20.35;;;13.13;;
66179;SDS011;52986;44.028;20.466;2023-06-22T08:02:55;19.13;;;13.20;;
66179;SDS011;52986;44.028;20.466;2023-06-22T08:05:21;21.55;;;12.68;;
66179;SDS011;52986;44.028;20.466;2023-06-22T08:07:46;17.65;;;12.95;;
66179;SDS011;52986;44.028;20.466;2023-06-22T08:10:12;21.48;;;13.85;;
66179;SDS011;52986;44.028;20.466;2023-06-22T08:12:38;18.58;;;13.15;;
66179;SDS011;52986;44.028;20.466;2023-06-22T08:15:05;20.92;;;13.07;;
66179;SDS011;52986;44.028;20.466;2023-06-22T08:17:31;17.75;;;13.07;;
66179;SDS011;52986;44.028;20.466;2023-06-22T08:19:56;18.00;;;13.02;;
66179;SDS011;52986;44.028;20.466;2023-06-22T08:22:22;19.25;;;12.95;;
66179;SDS011;52986;44.028;20.466;2023-06-22T08:24:47;19.73;;;12.23;;
66179;SDS011;52986;44.028;20.466;2023-06-22T08:27:13;16.95;;;11.70;;
66179;SDS011;52986;44.028;20.466;2023-06-22T08:29:39;18.98;;;11.40;;
66179;SDS011;52986;44.028;20.466;2023-06-22T08:32:07;18.33;;;13.00;;
66179;SDS011;52986;44.028;20.466;2023-06-22T08:34:33;16.70;;;10.82;;
66179;SDS011;52986;44.028;20.466;2023-06-22T08:36:59;17.60;;;10.98;;
66179;SDS011;52986;44.028;20.466;2023-06-22T08:39:25;16.52;;;10.57;;
66179;SDS011;52986;44.028;20.466;2023-06-22T08:41:51;17.42;;;10.70;;
66179;SDS011;52986;44.028;20.466;2023-06-22T08:44:18;15.23;;;10.35;;
66179;SDS011;52986;44.028;20.466;2023-06-22T08:46:44;13.75;;;8.93;;
66179;SDS011;52986;44.028;20.466;2023-06-22T08:49:09;15.93;;;10.38;;
66179;SDS011;52986;44.028;20.466;2023-06-22T08:51:35;15.30;;;9.77;;
66179;SDS011;52986;44.028;20.466;2023-06-22T08:54:00;12.02;;;7.70;;
66179;SDS011;52986;44.028;20.466;2023-06-22T08:56:27;11.50;;;8.07;;
66179;SDS011;52986;44.028;20.466;2023-06-22T08:58:52;11.43;;;6.68;;
66179;SDS011;52986;44.028;20.466;2023-06-22T09:01:18;10.13;;;6.30;;
66179;SDS011;52986;44.028;20.466;2023-06-22T09:03:43;19.53;;;9.43;;
66179;SDS011;52986;44.028;20.466;2023-06-22T09:06:09;16.77;;;9.02;;
66179;SDS011;52986;44.028;20.466;2023-06-22T09:08:35;12.90;;;7.90;;
66179;SDS011;52986;44.028;20.466;2023-06-22T09:11:01;14.25;;;10.05;;
66179;SDS011;52986;44.028;20.466;2023-06-22T09:13:27;13.45;;;8.57;;
66179;SDS011;52986;44.028;20.466;2023-06-22T09:15:55;12.75;;;8.75;;
66179;SDS011;52986;44.028;20.466;2023-06-22T09:18:20;12.50;;;7.45;;
66179;SDS011;52986;44.028;20.466;2023-06-22T09:20:46;13.10;;;9.18;;
66179;SDS011;52986;44.028;20.466;2023-06-22T09:23:11;12.38;;;9.68;;
66179;SDS011;52986;44.028;20.466;2023-06-22T09:25:37;11.18;;;7.65;;
66179;SDS011;52986;44.028;20.466;2023-06-22T09:28:02;16.70;;;8.20;;
66179;SDS011;52986;44.028;20.466;2023-06-22T09:30:28;29.15;;;8.68;;
66179;SDS011;52986;44.028;20.466;2023-06-22T09:32:53;13.98;;;7.78;;
66179;SDS011;52986;44.028;20.466;2023-06-22T09:35:19;16.23;;;8.35;;
66179;SDS011;52986;44.028;20.466;2023-06-22T09:37:45;13.15;;;8.55;;
66179;SDS011;52986;44.028;20.466;2023-06-22T09:40:10;11.05;;;7.32;;
66179;SDS011;52986;44.028;20.466;2023-06-22T09:42:38;12.25;;;7.32;;
66179;SDS011;52986;44.028;20.466;2023-06-22T09:45:04;12.18;;;7.22;;
66179;SDS011;52986;44.028;20.466;2023-06-22T09:47:30;12.13;;;7.68;;
66179;SDS011;52986;44.028;20.466;2023-06-22T09:49:56;12.45;;;8.00;;
66179;SDS011;52986;44.028;20.466;2023-06-22T09:52:24;11.05;;;7.75;;
66179;SDS011;52986;44.028;20.466;2023-06-22T09:54:49;13.23;;;8.05;;
66179;SDS011;52986;44.028;20.466;2023-06-22T09:57:14;12.30;;;8.32;;
66179;SDS011;52986;44.028;20.466;2023-06-22T09:59:40;12.40;;;8.50;;
66179;SDS011;52986;44.028;20.466;2023-06-22T10:02:07;12.57;;;8.48;;
66179;SDS011;52986;44.028;20.466;2023-06-22T10:04:33;13.23;;;8.43;;
66179;SDS011;52986;44.028;20.466;2023-06-22T10:06:59;11.57;;;7.93;;
66179;SDS011;52986;44.028;20.466;2023-06-22T10:09:24;14.20;;;9.13;;
66179;SDS011;52986;44.028;20.466;2023-06-22T10:11:50;12.45;;;8.50;;
66179;SDS011;52986;44.028;20.466;2023-06-22T10:14:15;15.57;;;8.50;;
66179;SDS011;52986;44.028;20.466;2023-06-22T10:16:41;13.77;;;8.52;;
66179;SDS011;52986;44.028;20.466;2023-06-22T10:19:07;13.88;;;8.48;;
66179;SDS011;52986;44.028;20.466;2023-06-22T10:21:32;12.13;;;8.33;;
66179;SDS011;52986;44.028;20.466;2023-06-22T10:23:58;14.32;;;8.77;;
66179;SDS011;52986;44.028;20.466;2023-06-22T10:26:26;12.95;;;8.50;;
66179;SDS011;52986;44.028;20.466;2023-06-22T10:28:54;14.38;;;8.52;;
66179;SDS011;52986;44.028;20.466;2023-06-22T10:31:19;18.85;;;9.00;;
66179;SDS011;52986;44.028;20.466;2023-06-22T10:33:44;14.00;;;8.90;;
66179;SDS011;52986;44.028;20.466;2023-06-22T10:36:10;13.98;;;8.80;;
66179;SDS011;52986;44.028;20.466;2023-06-22T10:38:36;12.55;;;8.80;;
66179;SDS011;52986;44.028;20.466;2023-06-22T10:41:01;14.93;;;9.03;;
66179;SDS011;52986;44.028;20.466;2023-06-22T10:43:27;15.25;;;9.32;;
66179;SDS011;52986;44.028;20.466;2023-06-22T10:45:53;12.35;;;8.82;;
66179;SDS011;52986;44.028;20.466;2023-06-22T10:48:18;13.13;;;9.40;;
66179;SDS011;52986;44.028;20.466;2023-06-22T10:50:43;12.80;;;8.60;;
66179;SDS011;52986;44.028;20.466;2023-06-22T10:53:09;13.27;;;8.80;;
66179;SDS011;52986;44.028;20.466;2023-06-22T10:55:34;18.42;;;9.50;;
66179;SDS011;52986;44.028;20.466;2023-06-22T10:58:06;15.05;;;9.20;;
66179;SDS011;52986;44.028;20.466;2023-06-22T11:00:31;17.00;;;9.95;;
66179;SDS011;52986;44.028;20.466;2023-06-22T11:02:57;15.02;;;9.75;;
66179;SDS011;52986;44.028;20.466;2023-06-22T11:05:23;13.88;;;10.10;;
66179;SDS011;52986;44.028;20.466;2023-06-22T11:07:48;16.10;;;9.95;;
66179;SDS011;52986;44.028;20.466;2023-06-22T11:10:14;15.07;;;10.25;;
66179;SDS011;52986;44.028;20.466;2023-06-22T11:12:40;14.25;;;9.88;;
66179;SDS011;52986;44.028;20.466;2023-06-22T11:15:07;17.80;;;9.75;;
66179;SDS011;52986;44.028;20.466;2023-06-22T11:17:33;15.30;;;9.57;;
66179;SDS011;52986;44.028;20.466;2023-06-22T11:19:58;13.55;;;9.35;;
66179;SDS011;52986;44.028;20.466;2023-06-22T11:22:25;14.32;;;9.73;;
66179;SDS011;52986;44.028;20.466;2023-06-22T11:24:50;14.88;;;10.25;;
66179;SDS011;52986;44.028;20.466;2023-06-22T11:27:16;13.27;;;8.10;;
66179;SDS011;52986;44.028;20.466;2023-06-22T11:29:41;12.10;;;7.80;;
66179;SDS011;52986;44.028;20.466;2023-06-22T11:32:07;13.15;;;8.15;;
66179;SDS011;52986;44.028;20.466;2023-06-22T11:34:32;15.88;;;8.13;;
66179;SDS011;52986;44.028;20.466;2023-06-22T11:36:58;13.27;;;7.82;;
66179;SDS011;52986;44.028;20.466;2023-06-22T11:39:23;12.57;;;7.65;;
66179;SDS011;52986;44.028;20.466;2023-06-22T11:41:49;13.57;;;7.50;;
66179;SDS011;52986;44.028;20.466;2023-06-22T11:44:14;11.68;;;7.47;;
66179;SDS011;52986;44.028;20.466;2023-06-22T11:46:40;12.27;;;7.95;;
66179;SDS011;52986;44.028;20.466;2023-06-22T11:49:06;13.93;;;7.78;;
66179;SDS011;52986;44.028;20.466;2023-06-22T11:51:31;13.00;;;7.32;;
66179;SDS011;52986;44.028;20.466;2023-06-22T11:53:57;12.85;;;7.50;;
66179;SDS011;52986;44.028;20.466;2023-06-22T11:56:23;10.80;;;7.10;;
66179;SDS011;52986;44.028;20.466;2023-06-22T11:58:48;13.70;;;7.80;;
66179;SDS011;52986;44.028;20.466;2023-06-22T12:01:13;16.33;;;7.75;;
66179;SDS011;52986;44.028;20.466;2023-06-22T12:03:40;12.80;;;7.47;;
66179;SDS011;52986;44.028;20.466;2023-06-22T12:06:05;12.95;;;6.93;;
66179;SDS011;52986;44.028;20.466;2023-06-22T12:08:31;15.33;;;7.57;;
66179;SDS011;52986;44.028;20.466;2023-06-22T12:10:56;13.30;;;7.55;;
66179;SDS011;52986;44.028;20.466;2023-06-22T12:13:21;12.00;;;7.47;;
66179;SDS011;52986;44.028;20.466;2023-06-22T12:15:47;15.30;;;7.10;;
66179;SDS011;52986;44.028;20.466;2023-06-22T12:18:12;13.65;;;7.50;;
66179;SDS011;52986;44.028;20.466;2023-06-22T12:20:40;15.20;;;7.32;;
66179;SDS011;52986;44.028;20.466;2023-06-22T12:23:05;16.00;;;7.70;;
66179;SDS011;52986;44.028;20.466;2023-06-22T12:25:30;12.90;;;7.82;;
66179;SDS011;52986;44.028;20.466;2023-06-22T12:27:56;14.75;;;7.22;;
66179;SDS011;52986;44.028;20.466;2023-06-22T12:30:21;13.52;;;7.18;;
66179;SDS011;52986;44.028;20.466;2023-06-22T12:32:47;13.05;;;7.38;;
66179;SDS011;52986;44.028;20.466;2023-06-22T12:35:12;12.60;;;7.38;;
66179;SDS011;52986;44.028;20.466;2023-06-22T12:37:41;15.80;;;10.38;;
66179;SDS011;52986;44.028;20.466;2023-06-22T12:40:07;12.00;;;7.20;;
66179;SDS011;52986;44.028;20.466;2023-06-22T12:42:33;20.00;;;12.88;;
66179;SDS011;52986;44.028;20.466;2023-06-22T12:44:59;12.13;;;7.20;;
66179;SDS011;52986;44.028;20.466;2023-06-22T12:47:24;12.38;;;6.72;;
66179;SDS011;52986;44.028;20.466;2023-06-22T12:49:49;14.95;;;7.40;;
66179;SDS011;52986;44.028;20.466;2023-06-22T12:52:15;11.52;;;6.72;;
66179;SDS011;52986;44.028;20.466;2023-06-22T12:54:40;15.48;;;6.63;;
66179;SDS011;52986;44.028;20.466;2023-06-22T12:57:06;12.13;;;7.00;;
66179;SDS011;52986;44.028;20.466;2023-06-22T12:59:31;12.10;;;6.50;;
66179;SDS011;52986;44.028;20.466;2023-06-22T13:01:57;11.95;;;6.85;;
66179;SDS011;52986;44.028;20.466;2023-06-22T13:04:22;11.20;;;6.70;;
66179;SDS011;52986;44.028;20.466;2023-06-22T13:06:47;12.73;;;7.25;;
66179;SDS011;52986;44.028;20.466;2023-06-22T13:09:14;11.43;;;7.00;;
66179;SDS011;52986;44.028;20.466;2023-06-22T13:11:40;13.50;;;6.93;;
66179;SDS011;52986;44.028;20.466;2023-06-22T13:14:06;13.43;;;7.00;;
66179;SDS011;52986;44.028;20.466;2023-06-22T13:16:31;10.93;;;6.55;;
66179;SDS011;52986;44.028;20.466;2023-06-22T13:18:56;13.13;;;6.85;;
66179;SDS011;52986;44.028;20.466;2023-06-22T13:21:28;11.18;;;7.13;;
66179;SDS011;52986;44.028;20.466;2023-06-22T13:23:55;11.90;;;7.00;;
66179;SDS011;52986;44.028;20.466;2023-06-22T13:26:20;11.35;;;6.85;;
66179;SDS011;52986;44.028;20.466;2023-06-22T13:28:46;12.10;;;7.38;;
66179;SDS011;52986;44.028;20.466;2023-06-22T13:31:11;13.32;;;7.55;;
66179;SDS011;52986;44.028;20.466;2023-06-22T13:33:37;15.50;;;6.88;;
66179;SDS011;52986;44.028;20.466;2023-06-22T13:36:03;15.90;;;7.18;;
66179;SDS011;52986;44.028;20.466;2023-06-22T13:38:28;12.30;;;7.00;;
66179;SDS011;52986;44.028;20.466;2023-06-22T13:40:55;13.57;;;7.82;;
66179;SDS011;52986;44.028;20.466;2023-06-22T13:43:23;16.10;;;7.90;;
66179;SDS011;52986;44.028;20.466;2023-06-22T13:45:49;13.73;;;7.38;;
66179;SDS011;52986;44.028;20.466;2023-06-22T13:48:14;12.75;;;7.10;;
66179;SDS011;52986;44.028;20.466;2023-06-22T13:50:39;14.87;;;7.27;;
66179;SDS011;52986;44.028;20.466;2023-06-22T13:53:05;17.90;;;7.00;;
66179;SDS011;52986;44.028;20.466;2023-06-22T13:55:30;13.20;;;6.70;;
66179;SDS011;52986;44.028;20.466;2023-06-22T13:57:56;13.10;;;6.93;;
66179;SDS011;52986;44.028;20.466;2023-06-22T14:00:21;15.10;;;6.67;;
66179;SDS011;52986;44.028;20.466;2023-06-22T14:02:47;11.20;;;6.55;;
66179;SDS011;52986;44.028;20.466;2023-06-22T14:05:12;13.95;;;6.78;;
66179;SDS011;52986;44.028;20.466;2023-06-22T14:07:37;14.80;;;7.20;;
66179;SDS011;52986;44.028;20.466;2023-06-22T14:10:03;12.93;;;6.90;;
66179;SDS011;52986;44.028;20.466;2023-06-22T14:12:29;11.75;;;6.50;;
66179;SDS011;52986;44.028;20.466;2023-06-22T14:14:54;12.75;;;6.85;;
66179;SDS011;52986;44.028;20.466;2023-06-22T14:17:20;12.98;;;6.85;;